sensor_id;sensor_type;location;lat;lon;timestamp;temperature;humidity
61004;DHT22;46889;37.310;13.582;2022-11-20T00:00:26;15.70;99.90
61004;DHT22;46889;37.310;13.582;2022-11-20T00:02:53;15.80;99.90
61004;DHT22;46889;37.310;13.582;2022-11-20T00:05:19;15.80;99.90
61004;DHT22;46889;37.310;13.582;2022-11-20T00:07:46;15.80;99.90
61004;DHT22;46889;37.310;13.582;2022-11-20T00:10:13;15.80;99.90
61004;DHT22;46889;37.310;13.582;2022-11-20T00:12:39;15.90;99.90
61004;DHT22;46889;37.310;13.582;2022-11-20T00:15:05;15.90;99.90
61004;DHT22;46889;37.310;13.582;2022-11-20T00:17:31;15.90;99.90
61004;DHT22;46889;37.310;13.582;2022-11-20T00:19:57;15.90;99.90
61004;DHT22;46889;37.310;13.582;2022-11-20T00:22:23;16.00;99.90
61004;DHT22;46889;37.310;13.582;2022-11-20T00:24:49;16.00;99.90
61004;DHT22;46889;37.310;13.582;2022-11-20T00:27:15;16.00;99.90
61004;DHT22;46889;37.310;13.582;2022-11-20T00:29:41;16.10;99.90
61004;DHT22;46889;37.310;13.582;2022-11-20T00:32:07;16.10;99.90
61004;DHT22;46889;37.310;13.582;2022-11-20T00:34:33;16.10;99.90
61004;DHT22;46889;37.310;13.582;2022-11-20T00:36:59;16.00;99.90
61004;DHT22;46889;37.310;13.582;2022-11-20T00:39:25;16.00;99.90
61004;DHT22;46889;37.310;13.582;2022-11-20T00:41:51;15.90;99.90
61004;DHT22;46889;37.310;13.582;2022-11-20T00:44:17;15.90;99.90
61004;DHT22;46889;37.310;13.582;2022-11-20T00:46:43;15.80;99.90
61004;DHT22;46889;37.310;13.582;2022-11-20T00:49:09;15.80;99.90
61004;DHT22;46889;37.310;13.582;2022-11-20T00:51:35;15.90;99.90
61004;DHT22;46889;37.310;13.582;2022-11-20T00:54:01;15.90;99.90
61004;DHT22;46889;37.310;13.582;2022-11-20T00:56:28;15.90;99.90
61004;DHT22;46889;37.310;13.582;2022-11-20T00:58:54;15.90;99.90
61004;DHT22;46889;37.310;13.582;2022-11-20T01:01:23;15.90;99.90
61004;DHT22;46889;37.310;13.582;2022-11-20T01:03:54;15.90;99.90
61004;DHT22;46889;37.310;13.582;2022-11-20T01:08:48;15.90;99.90
61004;DHT22;46889;37.310;13.582;2022-11-20T01:11:17;15.90;99.90
61004;DHT22;46889;37.310;13.582;2022-11-20T01:13:45;15.90;99.90
61004;DHT22;46889;37.310;13.582;2022-11-20T01:16:14;15.90;99.90
61004;DHT22;46889;37.310;13.582;2022-11-20T01:18:44;15.80;99.90
61004;DHT22;46889;37.310;13.582;2022-11-20T01:21:15;15.80;99.90
61004;DHT22;46889;37.310;13.582;2022-11-20T01:23:42;15.80;99.90
61004;DHT22;46889;37.310;13.582;2022-11-20T01:26:14;15.80;99.90
61004;DHT22;46889;37.310;13.582;2022-11-20T01:28:41;15.80;99.90
61004;DHT22;46889;37.310;13.582;2022-11-20T01:31:16;15.80;99.90
61004;DHT22;46889;37.310;13.582;2022-11-20T01:33:43;15.80;99.90
61004;DHT22;46889;37.310;13.582;2022-11-20T01:36:10;15.70;99.90
61004;DHT22;46889;37.310;13.582;2022-11-20T01:38:37;15.70;99.90
61004;DHT22;46889;37.310;13.582;2022-11-20T01:41:04;15.70;99.90
61004;DHT22;46889;37.310;13.582;2022-11-20T01:43:30;15.60;99.90
61004;DHT22;46889;37.310;13.582;2022-11-20T01:46:00;15.60;99.90
61004;DHT22;46889;37.310;13.582;2022-11-20T01:48:35;15.60;99.90
61004;DHT22;46889;37.310;13.582;2022-11-20T01:51:03;15.70;99.90
61004;DHT22;46889;37.310;13.582;2022-11-20T01:53:34;15.70;99.90
61004;DHT22;46889;37.310;13.582;2022-11-20T01:56:03;15.70;99.90
61004;DHT22;46889;37.310;13.582;2022-11-20T01:58:35;15.60;99.90
61004;DHT22;46889;37.310;13.582;2022-11-20T02:01:03;15.60;99.90
61004;DHT22;46889;37.310;13.582;2022-11-20T02:03:29;15.60;99.90
61004;DHT22;46889;37.310;13.582;2022-11-20T02:08:26;15.60;99.90
61004;DHT22;46889;37.310;13.582;2022-11-20T02:10:53;15.60;99.90
61004;DHT22;46889;37.310;13.582;2022-11-20T02:13:19;15.60;99.90
61004;DHT22;46889;37.310;13.582;2022-11-20T02:16:04;15.60;99.90
61004;DHT22;46889;37.310;13.582;2022-11-20T02:18:34;15.50;99.90
61004;DHT22;46889;37.310;13.582;2022-11-20T02:21:12;15.50;99.90
61004;DHT22;46889;37.310;13.582;2022-11-20T02:26:20;15.50;99.90
61004;DHT22;46889;37.310;13.582;2022-11-20T02:28:46;15.40;99.90
61004;DHT22;46889;37.310;13.582;2022-11-20T02:31:12;15.40;99.90
61004;DHT22;46889;37.310;13.582;2022-11-20T02:33:38;15.40;99.90
61004;DHT22;46889;37.310;13.582;2022-11-20T02:36:05;15.40;99.90
61004;DHT22;46889;37.310;13.582;2022-11-20T02:38:31;15.40;99.90
61004;DHT22;46889;37.310;13.582;2022-11-20T02:40:57;15.30;99.90
61004;DHT22;46889;37.310;13.582;2022-11-20T02:43:23;15.30;99.90
61004;DHT22;46889;37.310;13.582;2022-11-20T02:45:49;15.30;99.90
61004;DHT22;46889;37.310;13.582;2022-11-20T02:48:15;15.30;99.90
61004;DHT22;46889;37.310;13.582;2022-11-20T02:50:41;15.40;99.90
61004;DHT22;46889;37.310;13.582;2022-11-20T02:53:08;15.40;99.90
61004;DHT22;46889;37.310;13.582;2022-11-20T02:55:34;15.40;99.90
61004;DHT22;46889;37.310;13.582;2022-11-20T02:58:00;15.40;99.90
61004;DHT22;46889;37.310;13.582;2022-11-20T03:00:26;15.40;99.90
61004;DHT22;46889;37.310;13.582;2022-11-20T03:02:52;15.30;99.90
61004;DHT22;46889;37.310;13.582;2022-11-20T03:05:19;15.30;99.90
61004;DHT22;46889;37.310;13.582;2022-11-20T03:07:45;15.30;99.90
61004;DHT22;46889;37.310;13.582;2022-11-20T03:10:11;15.20;99.90
61004;DHT22;46889;37.310;13.582;2022-11-20T03:12:37;15.10;99.90
61004;DHT22;46889;37.310;13.582;2022-11-20T03:15:03;15.00;99.90
61004;DHT22;46889;37.310;13.582;2022-11-20T03:17:29;15.00;99.90
61004;DHT22;46889;37.310;13.582;2022-11-20T03:19:56;15.00;99.90
61004;DHT22;46889;37.310;13.582;2022-11-20T03:22:22;15.10;99.90
61004;DHT22;46889;37.310;13.582;2022-11-20T03:24:48;15.10;99.90
61004;DHT22;46889;37.310;13.582;2022-11-20T03:27:14;15.10;99.90
61004;DHT22;46889;37.310;13.582;2022-11-20T03:29:40;15.10;99.90
61004;DHT22;46889;37.310;13.582;2022-11-20T03:32:06;15.10;99.90
61004;DHT22;46889;37.310;13.582;2022-11-20T03:34:33;15.20;99.90
61004;DHT22;46889;37.310;13.582;2022-11-20T03:36:59;15.20;99.90
61004;DHT22;46889;37.310;13.582;2022-11-20T03:39:25;15.20;99.90
61004;DHT22;46889;37.310;13.582;2022-11-20T03:41:51;15.10;99.90
61004;DHT22;46889;37.310;13.582;2022-11-20T03:44:17;15.10;99.90
61004;DHT22;46889;37.310;13.582;2022-11-20T03:46:46;15.10;99.90
61004;DHT22;46889;37.310;13.582;2022-11-20T03:49:12;15.00;99.90
61004;DHT22;46889;37.310;13.582;2022-11-20T03:51:38;15.00;99.90
61004;DHT22;46889;37.310;13.582;2022-11-20T03:54:07;15.00;99.90
61004;DHT22;46889;37.310;13.582;2022-11-20T03:56:36;15.00;99.90
61004;DHT22;46889;37.310;13.582;2022-11-20T03:59:03;15.00;99.90
61004;DHT22;46889;37.310;13.582;2022-11-20T04:01:35;15.10;99.90
61004;DHT22;46889;37.310;13.582;2022-11-20T04:04:01;15.20;99.90
61004;DHT22;46889;37.310;13.582;2022-11-20T04:06:33;15.20;99.90
61004;DHT22;46889;37.310;13.582;2022-11-20T04:09:00;15.30;99.90
61004;DHT22;46889;37.310;13.582;2022-11-20T04:11:27;15.40;99.90
61004;DHT22;46889;37.310;13.582;2022-11-20T04:13:56;15.40;99.90
61004;DHT22;46889;37.310;13.582;2022-11-20T04:16:24;15.40;99.90
61004;DHT22;46889;37.310;13.582;2022-11-20T04:18:54;15.40;99.90
61004;DHT22;46889;37.310;13.582;2022-11-20T04:21:20;15.40;99.90
61004;DHT22;46889;37.310;13.582;2022-11-20T04:23:47;15.40;99.90
61004;DHT22;46889;37.310;13.582;2022-11-20T04:26:13;15.40;99.90
61004;DHT22;46889;37.310;13.582;2022-11-20T04:28:39;15.40;99.90
61004;DHT22;46889;37.310;13.582;2022-11-20T04:31:14;15.40;99.90
61004;DHT22;46889;37.310;13.582;2022-11-20T04:33:40;15.40;99.90
61004;DHT22;46889;37.310;13.582;2022-11-20T04:36:11;15.40;99.90
61004;DHT22;46889;37.310;13.582;2022-11-20T04:38:38;15.40;99.90
61004;DHT22;46889;37.310;13.582;2022-11-20T04:41:06;15.40;99.90
61004;DHT22;46889;37.310;13.582;2022-11-20T04:43:33;15.40;99.90
61004;DHT22;46889;37.310;13.582;2022-11-20T04:46:00;15.40;99.90
61004;DHT22;46889;37.310;13.582;2022-11-20T04:48:27;15.40;99.90
61004;DHT22;46889;37.310;13.582;2022-11-20T04:50:53;15.40;99.90
61004;DHT22;46889;37.310;13.582;2022-11-20T04:53:20;15.30;99.90
61004;DHT22;46889;37.310;13.582;2022-11-20T04:55:47;15.20;99.90
61004;DHT22;46889;37.310;13.582;2022-11-20T04:58:13;15.20;99.90
61004;DHT22;46889;37.310;13.582;2022-11-20T05:00:39;15.20;99.90
61004;DHT22;46889;37.310;13.582;2022-11-20T05:03:05;15.30;99.90
61004;DHT22;46889;37.310;13.582;2022-11-20T05:05:33;15.30;99.90
61004;DHT22;46889;37.310;13.582;2022-11-20T05:08:00;15.30;99.90
61004;DHT22;46889;37.310;13.582;2022-11-20T05:10:27;15.30;99.90
61004;DHT22;46889;37.310;13.582;2022-11-20T05:12:53;15.30;99.90
61004;DHT22;46889;37.310;13.582;2022-11-20T05:15:19;15.30;99.90
61004;DHT22;46889;37.310;13.582;2022-11-20T05:17:49;15.40;99.90
61004;DHT22;46889;37.310;13.582;2022-11-20T05:20:16;15.40;99.90
61004;DHT22;46889;37.310;13.582;2022-11-20T05:22:43;15.40;99.90
61004;DHT22;46889;37.310;13.582;2022-11-20T05:25:10;15.40;99.90
61004;DHT22;46889;37.310;13.582;2022-11-20T05:27:36;15.40;99.90
61004;DHT22;46889;37.310;13.582;2022-11-20T05:30:03;15.30;99.90
61004;DHT22;46889;37.310;13.582;2022-11-20T05:32:30;15.20;99.90
61004;DHT22;46889;37.310;13.582;2022-11-20T05:34:56;15.10;99.90
61004;DHT22;46889;37.310;13.582;2022-11-20T05:37:22;15.00;99.90
61004;DHT22;46889;37.310;13.582;2022-11-20T05:39:48;14.90;99.90
61004;DHT22;46889;37.310;13.582;2022-11-20T05:42:14;14.80;99.90
61004;DHT22;46889;37.310;13.582;2022-11-20T05:44:59;14.60;99.90
61004;DHT22;46889;37.310;13.582;2022-11-20T05:47:27;14.60;99.90
61004;DHT22;46889;37.310;13.582;2022-11-20T05:49:54;14.40;99.90
61004;DHT22;46889;37.310;13.582;2022-11-20T05:52:20;14.40;99.90
61004;DHT22;46889;37.310;13.582;2022-11-20T05:54:47;14.50;99.90
61004;DHT22;46889;37.310;13.582;2022-11-20T05:57:13;14.40;99.90
61004;DHT22;46889;37.310;13.582;2022-11-20T05:59:39;14.30;99.90
61004;DHT22;46889;37.310;13.582;2022-11-20T06:02:05;14.20;99.90
61004;DHT22;46889;37.310;13.582;2022-11-20T06:04:31;14.20;99.90
61004;DHT22;46889;37.310;13.582;2022-11-20T06:06:57;14.10;99.90
61004;DHT22;46889;37.310;13.582;2022-11-20T06:09:23;14.00;99.90
61004;DHT22;46889;37.310;13.582;2022-11-20T06:11:49;14.00;99.90
61004;DHT22;46889;37.310;13.582;2022-11-20T06:14:15;14.00;99.90
61004;DHT22;46889;37.310;13.582;2022-11-20T06:16:41;14.00;99.90
61004;DHT22;46889;37.310;13.582;2022-11-20T06:19:07;13.90;99.90
61004;DHT22;46889;37.310;13.582;2022-11-20T06:21:33;13.90;99.90
61004;DHT22;46889;37.310;13.582;2022-11-20T06:23:59;13.90;99.90
61004;DHT22;46889;37.310;13.582;2022-11-20T06:26:27;14.00;99.90
61004;DHT22;46889;37.310;13.582;2022-11-20T06:28:54;13.90;99.90
61004;DHT22;46889;37.310;13.582;2022-11-20T06:31:23;13.90;99.90
61004;DHT22;46889;37.310;13.582;2022-11-20T06:33:50;13.80;99.90
61004;DHT22;46889;37.310;13.582;2022-11-20T06:36:18;13.80;99.90
61004;DHT22;46889;37.310;13.582;2022-11-20T06:38:45;13.80;99.90
61004;DHT22;46889;37.310;13.582;2022-11-20T06:41:14;13.80;99.90
61004;DHT22;46889;37.310;13.582;2022-11-20T06:43:41;13.80;99.90
61004;DHT22;46889;37.310;13.582;2022-11-20T06:46:08;13.70;99.90
61004;DHT22;46889;37.310;13.582;2022-11-20T06:48:34;13.80;99.90
61004;DHT22;46889;37.310;13.582;2022-11-20T06:51:03;13.80;99.90
61004;DHT22;46889;37.310;13.582;2022-11-20T06:53:30;13.80;99.90
61004;DHT22;46889;37.310;13.582;2022-11-20T06:55:56;13.80;99.90
61004;DHT22;46889;37.310;13.582;2022-11-20T06:58:30;13.90;99.90
61004;DHT22;46889;37.310;13.582;2022-11-20T07:01:01;13.80;99.90
61004;DHT22;46889;37.310;13.582;2022-11-20T07:03:27;13.80;99.90
61004;DHT22;46889;37.310;13.582;2022-11-20T07:05:57;13.70;99.90
61004;DHT22;46889;37.310;13.582;2022-11-20T07:08:24;13.60;99.90
61004;DHT22;46889;37.310;13.582;2022-11-20T07:10:50;13.50;99.90
61004;DHT22;46889;37.310;13.582;2022-11-20T07:13:16;13.50;99.90
61004;DHT22;46889;37.310;13.582;2022-11-20T07:15:42;13.50;99.90
61004;DHT22;46889;37.310;13.582;2022-11-20T07:18:08;13.40;99.90
61004;DHT22;46889;37.310;13.582;2022-11-20T07:20:35;13.40;99.90
61004;DHT22;46889;37.310;13.582;2022-11-20T07:23:01;13.30;99.90
61004;DHT22;46889;37.310;13.582;2022-11-20T07:25:28;13.30;99.90
61004;DHT22;46889;37.310;13.582;2022-11-20T07:28:00;13.30;99.90
61004;DHT22;46889;37.310;13.582;2022-11-20T07:30:28;13.40;99.90
61004;DHT22;46889;37.310;13.582;2022-11-20T07:32:55;13.40;99.90
61004;DHT22;46889;37.310;13.582;2022-11-20T07:35:22;13.30;99.90
61004;DHT22;46889;37.310;13.582;2022-11-20T07:37:48;13.30;99.90
61004;DHT22;46889;37.310;13.582;2022-11-20T07:40:15;13.40;99.90
61004;DHT22;46889;37.310;13.582;2022-11-20T07:42:50;13.50;99.90
61004;DHT22;46889;37.310;13.582;2022-11-20T07:45:18;13.60;99.90
61004;DHT22;46889;37.310;13.582;2022-11-20T07:47:44;13.60;99.90
61004;DHT22;46889;37.310;13.582;2022-11-20T07:50:11;13.60;99.90
61004;DHT22;46889;37.310;13.582;2022-11-20T07:52:37;13.50;99.90
61004;DHT22;46889;37.310;13.582;2022-11-20T07:55:04;13.60;99.90
61004;DHT22;46889;37.310;13.582;2022-11-20T07:57:30;13.60;99.90
61004;DHT22;46889;37.310;13.582;2022-11-20T07:59:56;13.60;99.90
61004;DHT22;46889;37.310;13.582;2022-11-20T08:02:22;13.60;99.90
61004;DHT22;46889;37.310;13.582;2022-11-20T08:04:48;13.50;99.90
61004;DHT22;46889;37.310;13.582;2022-11-20T08:07:14;13.60;99.90
61004;DHT22;46889;37.310;13.582;2022-11-20T08:09:40;13.60;99.90
61004;DHT22;46889;37.310;13.582;2022-11-20T08:12:07;13.50;99.90
61004;DHT22;46889;37.310;13.582;2022-11-20T08:14:51;13.40;99.90
61004;DHT22;46889;37.310;13.582;2022-11-20T08:17:17;13.20;99.90
61004;DHT22;46889;37.310;13.582;2022-11-20T08:19:43;13.20;99.90
61004;DHT22;46889;37.310;13.582;2022-11-20T08:22:09;13.20;99.90
61004;DHT22;46889;37.310;13.582;2022-11-20T08:24:35;13.20;99.90
61004;DHT22;46889;37.310;13.582;2022-11-20T08:27:01;13.30;99.90
61004;DHT22;46889;37.310;13.582;2022-11-20T08:29:27;13.40;99.90
61004;DHT22;46889;37.310;13.582;2022-11-20T08:31:53;13.50;99.90
61004;DHT22;46889;37.310;13.582;2022-11-20T08:34:19;13.60;99.90
61004;DHT22;46889;37.310;13.582;2022-11-20T08:36:45;13.70;99.90
61004;DHT22;46889;37.310;13.582;2022-11-20T08:39:17;13.80;99.90
61004;DHT22;46889;37.310;13.582;2022-11-20T08:41:43;13.90;99.90
61004;DHT22;46889;37.310;13.582;2022-11-20T08:44:09;13.90;99.90
61004;DHT22;46889;37.310;13.582;2022-11-20T08:46:38;13.80;99.90
61004;DHT22;46889;37.310;13.582;2022-11-20T08:49:10;13.70;99.90
61004;DHT22;46889;37.310;13.582;2022-11-20T08:51:36;13.60;99.90
61004;DHT22;46889;37.310;13.582;2022-11-20T08:54:03;13.60;99.90
61004;DHT22;46889;37.310;13.582;2022-11-20T08:56:30;13.50;99.90
61004;DHT22;46889;37.310;13.582;2022-11-20T08:58:57;13.60;99.90
61004;DHT22;46889;37.310;13.582;2022-11-20T09:01:25;13.60;99.90
61004;DHT22;46889;37.310;13.582;2022-11-20T09:03:51;13.70;99.90
61004;DHT22;46889;37.310;13.582;2022-11-20T09:06:18;13.70;99.90
61004;DHT22;46889;37.310;13.582;2022-11-20T09:08:44;13.60;99.90
61004;DHT22;46889;37.310;13.582;2022-11-20T09:11:10;13.50;99.90
61004;DHT22;46889;37.310;13.582;2022-11-20T09:13:37;13.50;99.90
61004;DHT22;46889;37.310;13.582;2022-11-20T09:16:08;13.40;99.90
61004;DHT22;46889;37.310;13.582;2022-11-20T09:18:35;13.40;99.90
61004;DHT22;46889;37.310;13.582;2022-11-20T09:21:08;13.40;99.90
61004;DHT22;46889;37.310;13.582;2022-11-20T09:23:36;13.50;99.90
61004;DHT22;46889;37.310;13.582;2022-11-20T09:26:09;13.50;99.90
61004;DHT22;46889;37.310;13.582;2022-11-20T09:28:35;13.40;99.90
61004;DHT22;46889;37.310;13.582;2022-11-20T09:31:05;13.30;99.90
61004;DHT22;46889;37.310;13.582;2022-11-20T09:33:31;13.20;99.90
61004;DHT22;46889;37.310;13.582;2022-11-20T09:35:57;13.10;99.90
61004;DHT22;46889;37.310;13.582;2022-11-20T09:38:23;13.10;99.90
61004;DHT22;46889;37.310;13.582;2022-11-20T09:41:04;13.10;99.90
61004;DHT22;46889;37.310;13.582;2022-11-20T09:43:51;13.20;99.90
61004;DHT22;46889;37.310;13.582;2022-11-20T09:46:30;13.20;99.90
61004;DHT22;46889;37.310;13.582;2022-11-20T09:54:45;13.60;99.90
61004;DHT22;46889;37.310;13.582;2022-11-20T09:57:15;13.70;99.90
61004;DHT22;46889;37.310;13.582;2022-11-20T09:59:45;13.80;99.90
61004;DHT22;46889;37.310;13.582;2022-11-20T10:10:01;14.10;99.90
61004;DHT22;46889;37.310;13.582;2022-11-20T10:18:21;14.00;99.90
61004;DHT22;46889;37.310;13.582;2022-11-20T10:20:53;14.10;99.90
61004;DHT22;46889;37.310;13.582;2022-11-20T10:23:30;14.20;99.90
61004;DHT22;46889;37.310;13.582;2022-11-20T10:26:44;14.10;99.90
61004;DHT22;46889;37.310;13.582;2022-11-20T10:29:13;14.00;99.90
61004;DHT22;46889;37.310;13.582;2022-11-20T10:31:46;14.00;99.90
61004;DHT22;46889;37.310;13.582;2022-11-20T10:37:11;14.30;99.90
61004;DHT22;46889;37.310;13.582;2022-11-20T10:40:14;14.50;99.90
61004;DHT22;46889;37.310;13.582;2022-11-20T10:42:45;14.60;99.90
61004;DHT22;46889;37.310;13.582;2022-11-20T10:45:16;14.80;99.90
61004;DHT22;46889;37.310;13.582;2022-11-20T10:47:44;15.10;99.90
61004;DHT22;46889;37.310;13.582;2022-11-20T10:50:14;15.30;99.90
61004;DHT22;46889;37.310;13.582;2022-11-20T10:53:04;15.50;99.90
61004;DHT22;46889;37.310;13.582;2022-11-20T10:56:20;15.70;99.90
61004;DHT22;46889;37.310;13.582;2022-11-20T11:01:31;15.90;99.90
61004;DHT22;46889;37.310;13.582;2022-11-20T11:03:57;15.90;99.90
61004;DHT22;46889;37.310;13.582;2022-11-20T11:08:53;15.90;99.90
61004;DHT22;46889;37.310;13.582;2022-11-20T11:11:23;15.90;99.90
61004;DHT22;46889;37.310;13.582;2022-11-20T11:13:50;15.90;99.90
61004;DHT22;46889;37.310;13.582;2022-11-20T11:16:25;15.90;99.90
61004;DHT22;46889;37.310;13.582;2022-11-20T11:19:03;15.90;99.90
61004;DHT22;46889;37.310;13.582;2022-11-20T11:21:29;16.00;99.90
61004;DHT22;46889;37.310;13.582;2022-11-20T11:24:03;15.90;99.90
61004;DHT22;46889;37.310;13.582;2022-11-20T11:26:29;16.10;99.90
61004;DHT22;46889;37.310;13.582;2022-11-20T11:28:59;16.10;99.90
61004;DHT22;46889;37.310;13.582;2022-11-20T11:31:31;16.10;99.90
61004;DHT22;46889;37.310;13.582;2022-11-20T11:36:32;16.10;99.90
61004;DHT22;46889;37.310;13.582;2022-11-20T11:38:59;16.00;99.90
61004;DHT22;46889;37.310;13.582;2022-11-20T11:41:30;16.10;99.90
61004;DHT22;46889;37.310;13.582;2022-11-20T11:44:24;16.10;99.90
61004;DHT22;46889;37.310;13.582;2022-11-20T11:56:04;16.00;99.90
61004;DHT22;46889;37.310;13.582;2022-11-20T11:58:51;16.10;99.90
61004;DHT22;46889;37.310;13.582;2022-11-20T12:01:42;16.10;99.90
61004;DHT22;46889;37.310;13.582;2022-11-20T12:07:00;16.10;99.90
61004;DHT22;46889;37.310;13.582;2022-11-20T12:09:37;16.10;99.90
61004;DHT22;46889;37.310;13.582;2022-11-20T12:12:11;16.10;99.90
61004;DHT22;46889;37.310;13.582;2022-11-20T12:14:40;16.20;99.90
61004;DHT22;46889;37.310;13.582;2022-11-20T12:17:11;16.10;99.90
61004;DHT22;46889;37.310;13.582;2022-11-20T12:19:37;16.00;99.90
61004;DHT22;46889;37.310;13.582;2022-11-20T12:25:10;16.00;99.90
61004;DHT22;46889;37.310;13.582;2022-11-20T12:30:17;15.80;99.90
61004;DHT22;46889;37.310;13.582;2022-11-20T12:36:27;15.60;99.90
61004;DHT22;46889;37.310;13.582;2022-11-20T12:48:09;15.40;99.90
61004;DHT22;46889;37.310;13.582;2022-11-20T12:51:09;15.40;99.90
61004;DHT22;46889;37.310;13.582;2022-11-20T12:54:06;15.50;99.90
61004;DHT22;46889;37.310;13.582;2022-11-20T13:07:09;15.80;99.90
61004;DHT22;46889;37.310;13.582;2022-11-20T13:09:40;15.80;99.90
61004;DHT22;46889;37.310;13.582;2022-11-20T13:12:16;15.90;99.90
61004;DHT22;46889;37.310;13.582;2022-11-20T13:19:59;16.80;99.90
61004;DHT22;46889;37.310;13.582;2022-11-20T13:22:51;16.90;99.90
61004;DHT22;46889;37.310;13.582;2022-11-20T13:25:39;16.70;99.90
61004;DHT22;46889;37.310;13.582;2022-11-20T13:30:35;16.70;99.90
61004;DHT22;46889;37.310;13.582;2022-11-20T13:33:21;16.80;99.90
61004;DHT22;46889;37.310;13.582;2022-11-20T13:36:07;17.00;99.90
61004;DHT22;46889;37.310;13.582;2022-11-20T13:38:53;17.10;99.90
61004;DHT22;46889;37.310;13.582;2022-11-20T13:41:34;17.10;99.90
61004;DHT22;46889;37.310;13.582;2022-11-20T13:44:15;17.10;99.90
61004;DHT22;46889;37.310;13.582;2022-11-20T13:46:47;17.00;99.90
61004;DHT22;46889;37.310;13.582;2022-11-20T13:51:54;16.90;99.90
61004;DHT22;46889;37.310;13.582;2022-11-20T13:54:49;16.80;99.90
61004;DHT22;46889;37.310;13.582;2022-11-20T13:57:31;16.60;99.90
61004;DHT22;46889;37.310;13.582;2022-11-20T14:00:20;16.40;99.90
61004;DHT22;46889;37.310;13.582;2022-11-20T14:03:17;16.30;99.90
61004;DHT22;46889;37.310;13.582;2022-11-20T14:05:52;16.20;99.90
61004;DHT22;46889;37.310;13.582;2022-11-20T14:08:39;16.10;99.90
61004;DHT22;46889;37.310;13.582;2022-11-20T14:13:38;15.90;99.90
61004;DHT22;46889;37.310;13.582;2022-11-20T14:16:04;15.80;99.90
61004;DHT22;46889;37.310;13.582;2022-11-20T14:18:30;15.60;99.90
61004;DHT22;46889;37.310;13.582;2022-11-20T14:21:00;15.50;99.90
61004;DHT22;46889;37.310;13.582;2022-11-20T14:23:28;15.40;99.90
61004;DHT22;46889;37.310;13.582;2022-11-20T14:25:55;15.10;99.90
61004;DHT22;46889;37.310;13.582;2022-11-20T14:28:29;15.20;99.90
61004;DHT22;46889;37.310;13.582;2022-11-20T14:30:56;15.20;99.90
61004;DHT22;46889;37.310;13.582;2022-11-20T14:33:25;15.30;99.90
61004;DHT22;46889;37.310;13.582;2022-11-20T14:35:54;15.20;99.90
61004;DHT22;46889;37.310;13.582;2022-11-20T14:38:31;15.10;99.90
61004;DHT22;46889;37.310;13.582;2022-11-20T14:41:20;15.20;99.90
61004;DHT22;46889;37.310;13.582;2022-11-20T14:43:55;15.20;99.90
61004;DHT22;46889;37.310;13.582;2022-11-20T14:46:22;15.30;99.90
61004;DHT22;46889;37.310;13.582;2022-11-20T14:48:54;15.20;99.90
61004;DHT22;46889;37.310;13.582;2022-11-20T14:51:29;15.30;99.90
61004;DHT22;46889;37.310;13.582;2022-11-20T14:53:55;15.20;99.90
61004;DHT22;46889;37.310;13.582;2022-11-20T14:56:24;15.10;99.90
61004;DHT22;46889;37.310;13.582;2022-11-20T14:58:57;15.00;99.90
61004;DHT22;46889;37.310;13.582;2022-11-20T15:01:28;14.90;99.90
61004;DHT22;46889;37.310;13.582;2022-11-20T15:04:20;14.80;99.90
61004;DHT22;46889;37.310;13.582;2022-11-20T15:06:52;14.70;99.90
61004;DHT22;46889;37.310;13.582;2022-11-20T15:09:18;14.60;99.90
61004;DHT22;46889;37.310;13.582;2022-11-20T15:11:57;14.50;99.90
61004;DHT22;46889;37.310;13.582;2022-11-20T15:14:25;14.40;99.90
61004;DHT22;46889;37.310;13.582;2022-11-20T15:16:52;14.30;99.90
61004;DHT22;46889;37.310;13.582;2022-11-20T15:19:22;14.30;99.90
61004;DHT22;46889;37.310;13.582;2022-11-20T15:21:48;14.20;99.90
61004;DHT22;46889;37.310;13.582;2022-11-20T15:24:15;14.10;99.90
61004;DHT22;46889;37.310;13.582;2022-11-20T15:26:41;14.10;99.90
61004;DHT22;46889;37.310;13.582;2022-11-20T15:29:10;14.00;99.90
61004;DHT22;46889;37.310;13.582;2022-11-20T15:31:38;14.00;99.90
61004;DHT22;46889;37.310;13.582;2022-11-20T15:34:14;14.00;99.90
61004;DHT22;46889;37.310;13.582;2022-11-20T15:36:41;14.10;99.90
61004;DHT22;46889;37.310;13.582;2022-11-20T15:39:08;14.10;99.90
61004;DHT22;46889;37.310;13.582;2022-11-20T15:41:35;14.10;99.90
61004;DHT22;46889;37.310;13.582;2022-11-20T15:44:02;14.10;99.90
61004;DHT22;46889;37.310;13.582;2022-11-20T15:46:30;14.00;99.90
61004;DHT22;46889;37.310;13.582;2022-11-20T15:49:00;14.00;99.90
61004;DHT22;46889;37.310;13.582;2022-11-20T15:51:35;14.00;99.90
61004;DHT22;46889;37.310;13.582;2022-11-20T15:54:10;14.00;99.90
61004;DHT22;46889;37.310;13.582;2022-11-20T15:56:36;14.00;99.90
61004;DHT22;46889;37.310;13.582;2022-11-20T15:59:03;14.00;99.90
61004;DHT22;46889;37.310;13.582;2022-11-20T16:01:29;14.00;99.90
61004;DHT22;46889;37.310;13.582;2022-11-20T16:03:56;14.00;99.90
61004;DHT22;46889;37.310;13.582;2022-11-20T16:06:22;14.00;99.90
61004;DHT22;46889;37.310;13.582;2022-11-20T16:08:48;14.00;99.90
61004;DHT22;46889;37.310;13.582;2022-11-20T16:11:15;13.90;99.90
61004;DHT22;46889;37.310;13.582;2022-11-20T16:13:42;13.90;99.90
61004;DHT22;46889;37.310;13.582;2022-11-20T16:16:35;14.00;99.90
61004;DHT22;46889;37.310;13.582;2022-11-20T16:19:02;14.00;99.90
61004;DHT22;46889;37.310;13.582;2022-11-20T16:21:28;14.00;99.90
61004;DHT22;46889;37.310;13.582;2022-11-20T16:24:02;14.10;99.90
61004;DHT22;46889;37.310;13.582;2022-11-20T16:26:29;14.10;99.90
61004;DHT22;46889;37.310;13.582;2022-11-20T16:29:02;14.10;99.90
61004;DHT22;46889;37.310;13.582;2022-11-20T16:31:28;14.20;99.90
61004;DHT22;46889;37.310;13.582;2022-11-20T16:33:57;14.10;99.90
61004;DHT22;46889;37.310;13.582;2022-11-20T16:36:25;14.20;99.90
61004;DHT22;46889;37.310;13.582;2022-11-20T16:39:02;14.20;99.90
61004;DHT22;46889;37.310;13.582;2022-11-20T16:41:31;14.20;99.90
61004;DHT22;46889;37.310;13.582;2022-11-20T16:44:00;14.20;99.90
61004;DHT22;46889;37.310;13.582;2022-11-20T16:46:30;14.30;99.90
61004;DHT22;46889;37.310;13.582;2022-11-20T16:49:00;14.30;99.90
61004;DHT22;46889;37.310;13.582;2022-11-20T16:51:28;14.40;99.90
61004;DHT22;46889;37.310;13.582;2022-11-20T16:53:55;14.30;99.90
61004;DHT22;46889;37.310;13.582;2022-11-20T16:56:24;14.10;99.90
61004;DHT22;46889;37.310;13.582;2022-11-20T16:58:51;14.00;99.90
61004;DHT22;46889;37.310;13.582;2022-11-20T17:01:19;14.00;99.90